Monroe County Airport Bloomington US
ICAO: KBMG
IATA: BMG
Category: Medium
Scheduled Services: No

Elevation: 846 ft
TransAlt. 18000 ft.

Airport Communications:
HULMAN APP/DEP:128.05
ASOS:110.2
CTAF:120.775
GND:121.9
TERRE HAUTE RDO:110.2
BLOOMINGTON TWR:120.775
UNICOM:122.95

KBMG Zoom In..

Runways:

(A) RW 06 length 3798 ft width 100 ft
---- / hdg 64

(B) RW 17 length 6500 ft width 150 ft
---- / hdg 174

(C) RW 24 length 3798 ft width 100 ft
---- / hdg 244

(D) RW 35 length 6500 ft width 150 ft
ILS 108.30 / hdg 354

Location; KBMG
Day. 22 / Time. 03.53 Zulu
* Altimeter: 29.95
* Temperature: 11° c. 51.8°f.
* Wind from: 150° Speed 05 kn.
Dewpoint: 09° c.
Visibility: 6 Statute Miles.
Clouds: Few 3900 ft.
Clouds: Scattered 7000 ft.
Clouds: Overcast 9000 ft.
Conditions: Light Rain.Conditions: Mist.

KBMG 220353Z AUTO 15005KT 6SM -RA BR FEW039 SCT070 OVC090 11/09 A2995 RMK AO2 RAB46 SLP142 P0000 T01060094


Wind From 150°
Speed 05 kn.

jpsM music video
CHECK IT OUT

jpsM - It Moves..

 
jpsmedia.com for Web Design  worldairports.se 2018   terms of use